Time;durP1;ratioP1;P1;durP2;ratioP2;P2;SDS_P1;SDS_P2;PMS_P1;PMS_P2;Temp;Humidity;BMP_temperature;BMP_pressure;BME280_temperature;BME280_humidity;BME280_pressure;Samples;Min_cycle;Max_cycle;Signal;HPM_P1;HPM_P2
2022/02/27 00:04:53;;;;;;;22.80;11.87;;;;;;;;;;10198912;29;20370;-76
2022/02/27 00:09:53;;;;;;;22.50;12.10;;;;;;;;;;10198762;29;20019;-73
2022/02/27 00:14:53;;;;;;;26.42;13.40;;;;;;;;;;10200006;29;20527;-77
2022/02/27 00:19:54;;;;;;;28.17;13.10;;;;;;;;;;10198193;29;20086;-74
2022/02/27 00:24:54;;;;;;;26.42;13.50;;;;;;;;;;10198299;29;20050;-74
2022/02/27 00:29:54;;;;;;;26.95;12.07;;;;;;;;;;10197864;28;20126;-73
2022/02/27 00:34:55;;;;;;;20.67;11.90;;;;;;;;;;10213466;29;20024;-74
2022/02/27 00:39:55;;;;;;;26.45;12.43;;;;;;;;;;10197632;29;20024;-74
2022/02/27 00:44:56;;;;;;;31.20;12.63;;;;;;;;;;10197479;29;20024;-73
2022/02/27 00:49:56;;;;;;;34.67;11.30;;;;;;;;;;10198984;29;20023;-73
2022/02/27 00:54:57;;;;;;;23.25;11.82;;;;;;;;;;10218705;29;20036;-76
2022/02/27 00:59:58;;;;;;;26.75;12.23;;;;;;;;;;10205409;29;20065;-77
2022/02/27 01:04:59;;;;;;;20.35;10.68;;;;;;;;;;10204223;29;20024;-73
2022/02/27 01:09:59;;;;;;;25.07;13.13;;;;;;;;;;10203786;29;20039;-73
2022/02/27 01:14:59;;;;;;;33.83;14.13;;;;;;;;;;10203528;29;20036;-72
2022/02/27 01:20:00;;;;;;;27.75;14.30;;;;;;;;;;10203508;28;20028;-73
2022/02/27 01:25:00;;;;;;;29.35;15.40;;;;;;;;;;10203401;29;20038;-73
2022/02/27 01:30:00;;;;;;;27.95;15.82;;;;;;;;;;10203190;28;20031;-74
2022/02/27 01:35:01;;;;;;;31.35;16.23;;;;;;;;;;10204528;29;20035;-73
2022/02/27 01:40:01;;;;;;;27.73;15.13;;;;;;;;;;10202976;29;20545;-74
2022/02/27 01:45:05;;;;;;;30.83;15.20;;;;;;;;;;10202648;29;20024;-73
2022/02/27 01:50:06;;;;;;;33.42;14.73;;;;;;;;;;10202694;29;20028;-73
2022/02/27 01:55:07;;;;;;;24.30;12.40;;;;;;;;;;10202732;29;20407;-73
2022/02/27 02:00:08;;;;;;;23.48;13.68;;;;;;;;;;10202042;29;20435;-74
2022/02/27 02:05:08;;;;;;;28.65;13.25;;;;;;;;;;10201823;29;20035;-74
2022/02/27 02:10:09;;;;;;;33.53;13.53;;;;;;;;;;10203856;29;20024;-74
2022/02/27 02:15:11;;;;;;;24.95;12.60;;;;;;;;;;10217610;29;20812;-74
2022/02/27 02:20:14;;;;;;;25.88;14.38;;;;;;;;;;10202865;29;20047;-75
2022/02/27 02:25:14;;;;;;;30.70;14.43;;;;;;;;;;10202179;29;20508;-75
2022/02/27 02:30:15;;;;;;;24.10;13.33;;;;;;;;;;10201460;29;20020;-77
2022/02/27 02:35:16;;;;;;;24.67;11.20;;;;;;;;;;10203229;29;20026;-75
2022/02/27 02:40:16;;;;;;;23.70;11.55;;;;;;;;;;10201375;29;20027;-74
2022/02/27 02:45:16;;;;;;;33.37;11.77;;;;;;;;;;10201107;29;20553;-73
2022/02/27 02:50:18;;;;;;;25.63;12.03;;;;;;;;;;10201109;29;20718;-76
2022/02/27 02:55:19;;;;;;;29.48;13.63;;;;;;;;;;10201449;29;20260;-80
2022/02/27 03:00:19;;;;;;;24.70;12.20;;;;;;;;;;10200565;29;20027;-75
2022/02/27 03:05:19;;;;;;;28.60;11.57;;;;;;;;;;10200773;29;20034;-75
2022/02/27 03:10:20;;;;;;;32.42;13.32;;;;;;;;;;10201251;28;20080;-75
2022/02/27 03:15:20;;;;;;;24.87;12.80;;;;;;;;;;10200382;29;20039;-75
2022/02/27 03:20:20;;;;;;;27.25;12.88;;;;;;;;;;10200052;28;20051;-75
2022/02/27 03:25:20;;;;;;;40.87;13.93;;;;;;;;;;10201761;29;20039;-75
2022/02/27 03:30:21;;;;;;;34.50;14.63;;;;;;;;;;10201238;29;20027;-75
2022/02/27 03:35:21;;;;;;;33.67;14.25;;;;;;;;;;10215871;29;20030;-77
2022/02/27 03:40:22;;;;;;;31.58;14.90;;;;;;;;;;10199912;29;20024;-74
2022/02/27 03:45:22;;;;;;;26.67;14.07;;;;;;;;;;10199224;29;20407;-75
2022/02/27 03:50:22;;;;;;;35.70;14.87;;;;;;;;;;10183212;28;20032;-72
2022/02/27 03:55:22;;;;;;;36.40;14.50;;;;;;;;;;10199533;29;20030;-78
2022/02/27 04:00:24;;;;;;;33.60;14.40;;;;;;;;;;10200265;29;20031;-76
2022/02/27 04:05:24;;;;;;;26.55;12.20;;;;;;;;;;10199793;29;20411;-75
2022/02/27 04:10:25;;;;;;;28.00;13.07;;;;;;;;;;10198655;29;20031;-75
2022/02/27 04:15:25;;;;;;;27.87;14.50;;;;;;;;;;10198595;29;20042;-74
2022/02/27 04:20:26;;;;;;;32.22;15.07;;;;;;;;;;10197959;29;20291;-74
2022/02/27 04:25:26;;;;;;;33.53;16.63;;;;;;;;;;10403333;23;20053;-73
2022/02/27 04:30:26;;;;;;;30.27;14.98;;;;;;;;;;10487803;28;20857;-74
2022/02/27 04:35:27;;;;;;;31.13;12.35;;;;;;;;;;10487448;28;20032;-76
2022/02/27 04:40:27;;;;;;;27.13;13.57;;;;;;;;;;10486561;28;20119;-74
2022/02/27 04:45:28;;;;;;;34.80;16.50;;;;;;;;;;10487715;28;20028;-76
2022/02/27 04:50:28;;;;;;;32.75;14.75;;;;;;;;;;10488119;28;20397;-75
2022/02/27 04:55:28;;;;;;;31.80;14.30;;;;;;;;;;10487849;28;20017;-75
2022/02/27 05:00:29;;;;;;;34.13;19.10;;;;;;;;;;10486880;28;20279;-76
2022/02/27 05:05:29;;;;;;;24.92;13.43;;;;;;;;;;10486555;28;20373;-75
2022/02/27 05:10:31;;;;;;;32.10;17.67;;;;;;;;;;10487241;28;20025;-74
2022/02/27 05:15:32;;;;;;;20.75;12.13;;;;;;;;;;10487017;28;20031;-76
2022/02/27 05:20:32;;;;;;;40.95;20.55;;;;;;;;;;10486392;28;20377;-74
2022/02/27 05:25:33;;;;;;;36.20;18.08;;;;;;;;;;10486112;28;20132;-76
2022/02/27 05:30:33;;;;;;;30.15;14.75;;;;;;;;;;10487133;28;20447;-74
2022/02/27 05:35:33;;;;;;;39.42;15.55;;;;;;;;;;10486228;28;20029;-76
2022/02/27 05:40:34;;;;;;;44.47;18.40;;;;;;;;;;10489819;28;20027;-73
2022/02/27 05:45:34;;;;;;;23.45;12.63;;;;;;;;;;10467835;28;20264;-73
2022/02/27 05:50:34;;;;;;;37.58;18.48;;;;;;;;;;10485532;28;20101;-73
2022/02/27 05:55:35;;;;;;;49.35;18.25;;;;;;;;;;10493224;28;20094;-73
2022/02/27 06:00:35;;;;;;;41.70;18.87;;;;;;;;;;10493110;28;20020;-75
2022/02/27 06:05:35;;;;;;;41.22;19.05;;;;;;;;;;10493861;28;20487;-72
2022/02/27 06:10:36;;;;;;;44.47;18.83;;;;;;;;;;10467797;28;20420;-80
2022/02/27 06:15:37;;;;;;;38.40;17.42;;;;;;;;;;10464576;28;20259;-77
2022/02/27 06:20:37;;;;;;;44.60;18.33;;;;;;;;;;10492763;28;20028;-77
2022/02/27 06:25:38;;;;;;;34.20;16.58;;;;;;;;;;10466797;28;20043;-74
2022/02/27 06:30:38;;;;;;;44.47;21.05;;;;;;;;;;10450041;28;20028;-76
2022/02/27 06:35:38;;;;;;;40.50;20.60;;;;;;;;;;10450557;28;20032;-75
2022/02/27 06:40:39;;;;;;;43.97;20.37;;;;;;;;;;10482059;28;20090;-78
2022/02/27 06:45:39;;;;;;;34.13;16.35;;;;;;;;;;10492210;28;20024;-78
2022/02/27 06:50:39;;;;;;;39.78;19.25;;;;;;;;;;10491043;28;20476;-75
2022/02/27 06:55:40;;;;;;;46.53;18.52;;;;;;;;;;10508153;28;20492;-73
2022/02/27 07:00:41;;;;;;;33.97;18.77;;;;;;;;;;10490390;28;20051;-74
2022/02/27 07:05:41;;;;;;;39.30;18.35;;;;;;;;;;10489612;28;20051;-77
2022/02/27 07:10:42;;;;;;;37.30;18.27;;;;;;;;;;10490364;28;20016;-74
2022/02/27 07:15:42;;;;;;;39.83;18.80;;;;;;;;;;10489515;28;20495;-78
2022/02/27 07:20:42;;;;;;;36.20;17.50;;;;;;;;;;10490348;28;20012;-72
2022/02/27 07:25:48;;;;;;;34.45;16.83;;;;;;;;;;10490187;28;20048;-81
2022/02/27 07:30:49;;;;;;;37.13;15.70;;;;;;;;;;10490417;28;20040;-76
2022/02/27 07:35:49;;;;;;;38.60;17.80;;;;;;;;;;10488530;28;20020;-79
2022/02/27 07:40:51;;;;;;;37.03;18.52;;;;;;;;;;10488973;28;20287;-77
2022/02/27 07:45:52;;;;;;;34.03;19.70;;;;;;;;;;10487565;28;20443;-77
2022/02/27 07:50:52;;;;;;;31.90;18.23;;;;;;;;;;10487779;28;20040;-75
2022/02/27 07:55:52;;;;;;;32.85;18.08;;;;;;;;;;10505053;28;20077;-76
2022/02/27 08:00:53;;;;;;;26.55;14.23;;;;;;;;;;10487300;28;20020;-77
2022/02/27 08:05:53;;;;;;;30.25;17.83;;;;;;;;;;10487688;28;20028;-76
2022/02/27 08:10:53;;;;;;;23.75;13.88;;;;;;;;;;10490160;28;20028;-76
2022/02/27 08:15:58;;;;;;;25.15;14.27;;;;;;;;;;10490351;28;20036;-77
2022/02/27 08:20:59;;;;;;;27.77;16.42;;;;;;;;;;10463894;28;20063;-75
2022/02/27 08:26:00;;;;;;;32.10;18.38;;;;;;;;;;10446940;28;20052;-79
2022/02/27 08:31:00;;;;;;;28.77;16.65;;;;;;;;;;10448957;28;20035;-75
2022/02/27 08:36:00;;;;;;;27.20;15.75;;;;;;;;;;10481347;28;20029;-77
2022/02/27 08:41:00;;;;;;;29.17;15.80;;;;;;;;;;10488107;28;20032;-77
2022/02/27 08:46:01;;;;;;;27.08;14.73;;;;;;;;;;10505344;28;20020;-76
2022/02/27 08:51:01;;;;;;;26.38;14.90;;;;;;;;;;10488066;28;20037;-76
2022/02/27 08:56:01;;;;;;;25.90;15.33;;;;;;;;;;10486511;28;20025;-83
2022/02/27 09:01:02;;;;;;;27.90;13.30;;;;;;;;;;10487243;28;20050;-75
2022/02/27 09:06:02;;;;;;;27.20;15.70;;;;;;;;;;10488067;28;20286;-76
2022/02/27 09:11:02;;;;;;;26.07;15.07;;;;;;;;;;10487171;28;20425;-77
2022/02/27 09:16:03;;;;;;;26.50;15.73;;;;;;;;;;10476405;28;20266;-77
2022/02/27 09:21:03;;;;;;;21.55;11.55;;;;;;;;;;10513190;28;20119;-77
2022/02/27 09:26:03;;;;;;;17.70;11.43;;;;;;;;;;10478036;28;20534;-76
2022/02/27 09:31:04;;;;;;;14.65;9.02;;;;;;;;;;10495311;28;20661;-76
2022/02/27 09:36:07;;;;;;;17.10;9.68;;;;;;;;;;10504792;28;20032;-76
2022/02/27 09:41:07;;;;;;;15.68;9.57;;;;;;;;;;10496072;28;20028;-77
2022/02/27 09:46:07;;;;;;;15.57;10.13;;;;;;;;;;10476372;28;20021;-76
2022/02/27 09:51:09;;;;;;;17.77;10.45;;;;;;;;;;10493195;28;20139;-80
2022/02/27 09:56:10;;;;;;;15.52;9.93;;;;;;;;;;10493525;28;20036;-76
2022/02/27 10:01:12;;;;;;;13.35;9.02;;;;;;;;;;10492781;28;20407;-76
2022/02/27 10:06:13;;;;;;;17.85;11.00;;;;;;;;;;10492880;28;20035;-80
2022/02/27 10:11:14;;;;;;;23.33;12.40;;;;;;;;;;10492575;28;20039;-77
2022/02/27 10:16:15;;;;;;;14.45;9.35;;;;;;;;;;10491532;28;20033;-77
2022/02/27 10:21:22;;;;;;;14.70;9.57;;;;;;;;;;10492041;28;20028;-77
2022/02/27 10:26:23;;;;;;;15.98;10.15;;;;;;;;;;10490875;28;20055;-80
2022/02/27 10:31:27;;;;;;;16.33;9.70;;;;;;;;;;10491822;28;20443;-79
2022/02/27 10:36:28;;;;;;;14.75;9.73;;;;;;;;;;10491606;28;20424;-76
2022/02/27 10:41:35;;;;;;;10.93;8.17;;;;;;;;;;10491518;28;20021;-76
2022/02/27 10:46:36;;;;;;;14.63;9.15;;;;;;;;;;10501359;28;20495;-76
2022/02/27 10:51:37;;;;;;;13.38;7.97;;;;;;;;;;10491919;28;20028;-74
2022/02/27 10:56:38;;;;;;;10.75;7.25;;;;;;;;;;10490062;28;20029;-77
2022/02/27 11:01:40;;;;;;;12.25;8.43;;;;;;;;;;10490457;28;20071;-76
2022/02/27 11:06:40;;;;;;;21.60;12.05;;;;;;;;;;10473655;28;20112;-76
2022/02/27 11:11:40;;;;;;;19.63;9.67;;;;;;;;;;10489751;28;20021;-74
2022/02/27 11:16:41;;;;;;;14.52;9.30;;;;;;;;;;10464778;28;20120;-75
2022/02/27 11:21:42;;;;;;;20.67;10.00;;;;;;;;;;10449108;28;20031;-75
2022/02/27 11:26:42;;;;;;;14.80;9.60;;;;;;;;;;10448729;28;20057;-75
2022/02/27 11:31:43;;;;;;;7.93;6.80;;;;;;;;;;10463586;28;20063;-79
2022/02/27 11:36:51;;;;;;;18.90;11.63;;;;;;;;;;10507030;28;20104;-78
2022/02/27 11:41:51;;;;;;;14.40;10.60;;;;;;;;;;10489885;28;20028;-74
2022/02/27 11:47:01;;;;;;;19.73;13.47;;;;;;;;;;10491115;28;20054;-74
2022/02/27 11:52:05;;;;;;;19.20;11.70;;;;;;;;;;10488686;28;20025;-78
2022/02/27 11:57:11;;;;;;;19.85;12.88;;;;;;;;;;10488736;28;20123;-76
2022/02/27 12:02:40;;;;;;;20.25;13.63;;;;;;;;;;10490772;28;20024;-76
2022/02/27 12:07:59;;;;;;;17.35;11.93;;;;;;;;;;10478693;28;20028;-76
2022/02/27 12:13:00;;;;;;;18.25;10.52;;;;;;;;;;10486940;28;20093;-73
2022/02/27 12:18:05;;;;;;;21.65;12.27;;;;;;;;;;10488337;28;20050;-73
2022/02/27 12:23:32;;;;;;;21.50;14.18;;;;;;;;;;10486809;28;20063;-72
2022/02/27 12:28:45;;;;;;;15.98;9.98;;;;;;;;;;10486881;28;20043;-74
2022/02/27 12:33:45;;;;;;;15.43;8.93;;;;;;;;;;10480814;28;20024;-75
2022/02/27 12:38:48;;;;;;;15.00;8.55;;;;;;;;;;10479809;28;20028;-72
2022/02/27 12:43:48;;;;;;;13.18;9.02;;;;;;;;;;10457385;28;20116;-74
2022/02/27 12:54:12;;;;;;;15.70;9.85;;;;;;;;;;10494844;28;20043;-71
2022/02/27 12:59:13;;;;;;;13.65;7.63;;;;;;;;;;10492353;28;20506;-76
2022/02/27 13:04:13;;;;;;;18.95;9.27;;;;;;;;;;10494997;28;20034;-72
2022/02/27 13:09:13;;;;;;;11.43;6.57;;;;;;;;;;10492596;28;20456;-76
2022/02/27 13:14:14;;;;;;;9.70;5.23;;;;;;;;;;10494797;28;20028;-71
2022/02/27 13:19:27;;;;;;;11.10;7.25;;;;;;;;;;10493166;28;20674;-74
2022/02/27 13:24:31;;;;;;;14.90;8.98;;;;;;;;;;10492036;28;20064;-74
2022/02/27 13:29:32;;;;;;;19.10;10.77;;;;;;;;;;10475311;28;20507;-71
2022/02/27 13:34:33;;;;;;;20.88;11.00;;;;;;;;;;10451226;28;20036;-76
2022/02/27 13:39:34;;;;;;;22.27;10.10;;;;;;;;;;10451207;28;20027;-72
2022/02/27 13:44:43;;;;;;;25.60;10.50;;;;;;;;;;10450443;28;20851;-76
2022/02/27 13:49:43;;;;;;;18.15;11.40;;;;;;;;;;10504514;28;20467;-72
2022/02/27 13:54:44;;;;;;;22.98;10.27;;;;;;;;;;10492706;28;20060;-72
2022/02/27 13:59:50;;;;;;;22.55;11.73;;;;;;;;;;10490061;28;20028;-71
2022/02/27 14:05:06;;;;;;;27.23;11.25;;;;;;;;;;10490453;28;20048;-71
2022/02/27 14:10:07;;;;;;;24.35;11.82;;;;;;;;;;10490326;28;20479;-72
2022/02/27 14:15:07;;;;;;;19.10;10.65;;;;;;;;;;10473916;28;20032;-72
2022/02/27 14:20:08;;;;;;;18.02;10.35;;;;;;;;;;10492187;28;20115;-72
2022/02/27 14:25:08;;;;;;;22.35;9.95;;;;;;;;;;10490577;28;20059;-71
2022/02/27 14:30:26;;;;;;;19.57;9.77;;;;;;;;;;10465445;28;20108;-72
2022/02/27 14:35:26;;;;;;;18.65;8.73;;;;;;;;;;10449115;28;20382;-71
2022/02/27 14:40:27;;;;;;;14.18;8.10;;;;;;;;;;10453814;28;20033;-71
2022/02/27 14:45:31;;;;;;;12.60;7.38;;;;;;;;;;10472594;28;20029;-70
2022/02/27 14:50:32;;;;;;;13.70;7.78;;;;;;;;;;10449044;28;20083;-72
2022/02/27 14:55:33;;;;;;;12.55;5.57;;;;;;;;;;10467933;28;20511;-71
2022/02/27 15:00:34;;;;;;;7.05;5.57;;;;;;;;;;10489546;28;20038;-71
2022/02/27 15:05:34;;;;;;;9.98;5.13;;;;;;;;;;10489245;28;20487;-70
2022/02/27 15:10:34;;;;;;;13.35;6.38;;;;;;;;;;10489809;28;20052;-71
2022/02/27 15:15:35;;;;;;;12.93;5.97;;;;;;;;;;10488577;28;20050;-70
2022/02/27 15:20:35;;;;;;;16.10;8.23;;;;;;;;;;10487746;28;20036;-71
2022/02/27 15:25:36;;;;;;;18.30;8.80;;;;;;;;;;10486728;28;20054;-74
2022/02/27 15:30:36;;;;;;;19.98;8.50;;;;;;;;;;10487436;28;20764;-71
2022/02/27 15:35:37;;;;;;;12.25;8.07;;;;;;;;;;10487071;28;20025;-71
2022/02/27 15:40:38;;;;;;;15.95;9.70;;;;;;;;;;10489250;28;20052;-72
2022/02/27 15:45:38;;;;;;;21.65;10.32;;;;;;;;;;10488327;28;20151;-71
2022/02/27 15:50:38;;;;;;;18.20;8.87;;;;;;;;;;10487410;28;20012;-72
2022/02/27 15:55:39;;;;;;;15.18;9.20;;;;;;;;;;10486765;28;20109;-71
2022/02/27 16:00:40;;;;;;;13.50;7.22;;;;;;;;;;10486318;28;20023;-71
2022/02/27 16:05:40;;;;;;;11.80;7.43;;;;;;;;;;10486472;28;20032;-71
2022/02/27 16:10:40;;;;;;;15.10;8.80;;;;;;;;;;10485341;28;20270;-72
2022/02/27 16:15:41;;;;;;;15.40;9.13;;;;;;;;;;10485845;28;20345;-73
2022/02/27 16:20:41;;;;;;;12.52;7.97;;;;;;;;;;10485940;28;20456;-72
2022/02/27 16:25:41;;;;;;;15.67;10.10;;;;;;;;;;10485478;28;20500;-72
2022/02/27 16:30:42;;;;;;;16.35;9.82;;;;;;;;;;10458166;28;20071;-72
2022/02/27 16:35:43;;;;;;;17.05;8.98;;;;;;;;;;10457130;28;20035;-71
2022/02/27 16:40:43;;;;;;;17.15;11.23;;;;;;;;;;10468208;28;20032;-71
2022/02/27 16:45:44;;;;;;;16.73;10.02;;;;;;;;;;10484867;28;20058;-77
2022/02/27 16:50:44;;;;;;;12.70;9.23;;;;;;;;;;10500750;28;20407;-71
2022/02/27 16:55:44;;;;;;;15.57;8.73;;;;;;;;;;10485016;28;20258;-71
2022/02/27 17:00:45;;;;;;;16.53;11.13;;;;;;;;;;10485012;28;20116;-72
2022/02/27 17:05:46;;;;;;;14.90;9.85;;;;;;;;;;10483835;28;20801;-73
2022/02/27 17:10:46;;;;;;;17.92;9.68;;;;;;;;;;10484709;28;20459;-72
2022/02/27 17:15:47;;;;;;;23.57;13.43;;;;;;;;;;10486201;28;20043;-74
2022/02/27 17:20:47;;;;;;;16.85;8.25;;;;;;;;;;10484314;28;20411;-74
2022/02/27 17:25:48;;;;;;;12.48;7.35;;;;;;;;;;10485988;28;20547;-72
2022/02/27 17:30:48;;;;;;;8.75;4.95;;;;;;;;;;10454833;28;20078;-72
2022/02/27 17:35:53;;;;;;;6.60;4.00;;;;;;;;;;10467365;28;20025;-75
2022/02/27 17:40:53;;;;;;;9.55;6.03;;;;;;;;;;10492672;28;20028;-73
2022/02/27 17:45:54;;;;;;;13.98;9.13;;;;;;;;;;10492830;28;20024;-76
2022/02/27 17:50:54;;;;;;;15.93;7.00;;;;;;;;;;10491551;28;20020;-71
2022/02/27 17:55:55;;;;;;;17.33;8.02;;;;;;;;;;10492594;28;20074;-72
2022/02/27 18:00:55;;;;;;;10.07;6.85;;;;;;;;;;10491339;28;20629;-73
2022/02/27 18:05:55;;;;;;;12.77;9.50;;;;;;;;;;10492105;28;20017;-71
2022/02/27 18:10:56;;;;;;;9.48;6.57;;;;;;;;;;10491439;28;20074;-71
2022/02/27 18:15:56;;;;;;;9.50;6.70;;;;;;;;;;10491811;28;20166;-77
2022/02/27 18:20:56;;;;;;;8.82;5.68;;;;;;;;;;10491724;28;20492;-74
2022/02/27 18:25:57;;;;;;;5.93;4.78;;;;;;;;;;10491219;28;20412;-72
2022/02/27 18:30:57;;;;;;;7.07;5.83;;;;;;;;;;10489974;28;20025;-72
2022/02/27 18:35:57;;;;;;;7.70;5.80;;;;;;;;;;10489296;28;20321;-72
2022/02/27 18:40:58;;;;;;;6.30;4.25;;;;;;;;;;10490832;28;20107;-74
2022/02/27 18:45:59;;;;;;;4.85;3.90;;;;;;;;;;10488835;28;20048;-74
2022/02/27 18:51:00;;;;;;;10.70;5.38;;;;;;;;;;10489542;28;20116;-71
2022/02/27 18:56:02;;;;;;;5.22;4.05;;;;;;;;;;10489994;28;20043;-71
2022/02/27 19:01:02;;;;;;;9.57;5.90;;;;;;;;;;10487525;28;20039;-75
2022/02/27 19:06:02;;;;;;;9.00;6.70;;;;;;;;;;10463033;28;20032;-73
2022/02/27 19:11:03;;;;;;;14.10;8.05;;;;;;;;;;10474349;28;20107;-71
2022/02/27 19:16:04;;;;;;;12.73;8.13;;;;;;;;;;10489829;28;20040;-72
2022/02/27 19:21:05;;;;;;;14.43;8.43;;;;;;;;;;10487984;28;20172;-76
2022/02/27 19:26:06;;;;;;;11.02;6.80;;;;;;;;;;10487586;28;20056;-75
2022/02/27 19:31:07;;;;;;;8.25;5.82;;;;;;;;;;10488120;28;20529;-75
2022/02/27 19:36:07;;;;;;;10.88;6.18;;;;;;;;;;10487366;28;20078;-74
2022/02/27 19:41:07;;;;;;;10.75;7.20;;;;;;;;;;10486522;28;20030;-72
2022/02/27 19:46:08;;;;;;;8.27;5.60;;;;;;;;;;10486902;28;20574;-71
2022/02/27 19:51:08;;;;;;;9.63;5.80;;;;;;;;;;10485881;28;20020;-72
2022/02/27 19:56:09;;;;;;;9.40;6.40;;;;;;;;;;10487935;28;20032;-72
2022/02/27 20:01:09;;;;;;;14.83;9.43;;;;;;;;;;10487268;28;20027;-72
2022/02/27 20:06:09;;;;;;;14.10;9.13;;;;;;;;;;10486659;28;20407;-71
2022/02/27 20:11:12;;;;;;;13.73;8.85;;;;;;;;;;10488279;28;20258;-71
2022/02/27 20:16:13;;;;;;;13.18;7.55;;;;;;;;;;10486831;28;20017;-71
2022/02/27 20:21:14;;;;;;;7.93;6.50;;;;;;;;;;10486630;28;20025;-72
2022/02/27 20:26:16;;;;;;;12.48;5.93;;;;;;;;;;10485475;28;20048;-71
2022/02/27 20:31:16;;;;;;;10.30;5.95;;;;;;;;;;10495277;28;20016;-71
2022/02/27 20:36:17;;;;;;;7.45;5.88;;;;;;;;;;10486512;28;20020;-76
2022/02/27 20:41:17;;;;;;;10.63;6.67;;;;;;;;;;10425551;23;20050;-71
2022/02/27 20:46:17;;;;;;;7.00;6.03;;;;;;;;;;10316830;28;20265;-73
2022/02/27 20:51:18;;;;;;;10.02;6.50;;;;;;;;;;10315669;28;20504;-74
2022/02/27 20:56:18;;;;;;;10.55;6.07;;;;;;;;;;10316504;28;20084;-72
2022/02/27 21:01:19;;;;;;;6.55;5.15;;;;;;;;;;10315646;28;20034;-71
2022/02/27 21:06:19;;;;;;;7.37;4.67;;;;;;;;;;10313797;28;20030;-71
2022/02/27 21:11:19;;;;;;;13.98;7.93;;;;;;;;;;10319238;28;20030;-71
2022/02/27 21:16:20;;;;;;;10.57;6.90;;;;;;;;;;10313247;28;20038;-70
2022/02/27 21:21:22;;;;;;;14.45;8.32;;;;;;;;;;10322511;28;20281;-71
2022/02/27 21:26:22;;;;;;;8.80;7.03;;;;;;;;;;10322530;28;20056;-74
2022/02/27 21:31:22;;;;;;;14.13;6.67;;;;;;;;;;10356017;28;20493;-73
2022/02/27 21:36:23;;;;;;;9.48;7.78;;;;;;;;;;10329373;28;20276;-69
2022/02/27 21:41:23;;;;;;;8.80;6.43;;;;;;;;;;10302188;28;20050;-70
2022/02/27 21:46:24;;;;;;;10.07;6.53;;;;;;;;;;10295745;28;20019;-70
2022/02/27 21:51:27;;;;;;;7.38;6.15;;;;;;;;;;10282292;28;20266;-72
2022/02/27 21:56:28;;;;;;;8.20;5.55;;;;;;;;;;10266514;28;20494;-71
2022/02/27 22:01:28;;;;;;;6.57;4.82;;;;;;;;;;10282129;28;20018;-71
2022/02/27 22:06:32;;;;;;;6.18;5.28;;;;;;;;;;10282141;28;20027;-72
2022/02/27 22:11:33;;;;;;;9.45;5.82;;;;;;;;;;10283131;28;20469;-72
2022/02/27 22:16:34;;;;;;;10.75;7.47;;;;;;;;;;10295425;28;20033;-72
2022/02/27 22:21:35;;;;;;;11.57;7.50;;;;;;;;;;10280409;28;20409;-72
2022/02/27 22:26:35;;;;;;;14.77;8.43;;;;;;;;;;10282543;28;20516;-71
2022/02/27 22:31:35;;;;;;;9.53;6.90;;;;;;;;;;10281265;28;20023;-70
2022/02/27 22:36:36;;;;;;;8.27;5.88;;;;;;;;;;10280777;28;20737;-71
2022/02/27 22:41:38;;;;;;;6.45;5.72;;;;;;;;;;10281856;28;20488;-71
2022/02/27 22:46:38;;;;;;;7.13;6.43;;;;;;;;;;10281552;28;20038;-72
2022/02/27 22:51:38;;;;;;;13.47;6.53;;;;;;;;;;10282467;28;20030;-71
2022/02/27 22:56:39;;;;;;;8.00;5.75;;;;;;;;;;10281791;28;20365;-71
2022/02/27 23:01:39;;;;;;;9.47;6.50;;;;;;;;;;10280264;28;20034;-71
2022/02/27 23:06:39;;;;;;;8.83;7.17;;;;;;;;;;10280101;28;20019;-73
2022/02/27 23:11:40;;;;;;;11.75;5.97;;;;;;;;;;10296264;28;20489;-71
2022/02/27 23:16:40;;;;;;;11.73;8.10;;;;;;;;;;10281270;28;20030;-70
2022/02/27 23:21:40;;;;;;;9.07;6.65;;;;;;;;;;10279321;28;20022;-70
2022/02/27 23:26:41;;;;;;;7.63;6.57;;;;;;;;;;10279218;28;20482;-70
2022/02/27 23:31:45;;;;;;;6.95;5.20;;;;;;;;;;10280390;28;20122;-71
2022/02/27 23:36:45;;;;;;;9.45;5.80;;;;;;;;;;10280742;28;20027;-71
2022/02/27 23:41:46;;;;;;;7.95;5.57;;;;;;;;;;10278254;28;20074;-73
2022/02/27 23:46:46;;;;;;;5.88;5.28;;;;;;;;;;10363305;28;20030;-71
2022/02/27 23:51:47;;;;;;;5.57;4.78;;;;;;;;;;10363430;28;20022;-71
2022/02/27 23:56:47;;;;;;;8.27;5.35;;;;;;;;;;10278357;28;20044;-72
